sensor_id;sensor_type;location;lat;lon;timestamp;pressure;altitude;pressure_sealevel;temperature;humidity
46942;BME280;32676;52.630;4.896;2023-03-03T00:00:03;101140.75;;;2.46;82.92
46942;BME280;32676;52.630;4.896;2023-03-03T00:02:30;101139.91;;;2.52;82.93
46942;BME280;32676;52.630;4.896;2023-03-03T00:04:57;101129.50;;;2.49;82.96
46942;BME280;32676;52.630;4.896;2023-03-03T00:07:23;101117.38;;;2.45;82.94
46942;BME280;32676;52.630;4.896;2023-03-03T00:09:50;101113.06;;;2.42;82.96
46942;BME280;32676;52.630;4.896;2023-03-03T00:12:22;101100.03;;;2.35;83.20
46942;BME280;32676;52.630;4.896;2023-03-03T00:14:49;101108.75;;;2.43;83.06
46942;BME280;32676;52.630;4.896;2023-03-03T00:17:20;101100.97;;;2.43;83.10
46942;BME280;32676;52.630;4.896;2023-03-03T00:19:47;101106.16;;;2.43;83.12
46942;BME280;32676;52.630;4.896;2023-03-03T00:22:24;101100.09;;;2.41;83.00
46942;BME280;32676;52.630;4.896;2023-03-03T00:24:52;101091.41;;;2.36;83.15
46942;BME280;32676;52.630;4.896;2023-03-03T00:27:26;101056.78;;;2.24;83.03
46942;BME280;32676;52.630;4.896;2023-03-03T00:29:54;101081.03;;;2.36;82.87
46942;BME280;32676;52.630;4.896;2023-03-03T00:32:25;101093.13;;;2.38;82.87
46942;BME280;32676;52.630;4.896;2023-03-03T00:34:53;101089.69;;;2.38;82.82
46942;BME280;32676;52.630;4.896;2023-03-03T00:37:28;101054.19;;;2.23;82.69
46942;BME280;32676;52.630;4.896;2023-03-03T00:40:00;101044.66;;;2.22;82.48
46942;BME280;32676;52.630;4.896;2023-03-03T00:42:32;101042.06;;;2.20;82.60
46942;BME280;32676;52.630;4.896;2023-03-03T00:45:00;101034.28;;;2.23;82.70
46942;BME280;32676;52.630;4.896;2023-03-03T00:47:30;101052.47;;;2.28;82.60
46942;BME280;32676;52.630;4.896;2023-03-03T00:50:17;101049.88;;;2.26;82.62
46942;BME280;32676;52.630;4.896;2023-03-03T00:52:59;101050.72;;;2.27;82.54
46942;BME280;32676;52.630;4.896;2023-03-03T00:55:26;101058.53;;;2.28;82.72
46942;BME280;32676;52.630;4.896;2023-03-03T00:57:53;101055.94;;;2.30;82.81
46942;BME280;32676;52.630;4.896;2023-03-03T01:00:19;101046.41;;;2.24;82.85
46942;BME280;32676;52.630;4.896;2023-03-03T01:02:47;101053.31;;;2.25;82.83
46942;BME280;32676;52.630;4.896;2023-03-03T01:05:16;101053.34;;;2.28;82.79
46942;BME280;32676;52.630;4.896;2023-03-03T01:07:43;101059.38;;;2.29;82.80
46942;BME280;32676;52.630;4.896;2023-03-03T01:10:10;101055.06;;;2.26;82.66
46942;BME280;32676;52.630;4.896;2023-03-03T01:12:37;101050.72;;;2.27;82.65
46942;BME280;32676;52.630;4.896;2023-03-03T01:15:05;101042.94;;;2.25;82.74
46942;BME280;32676;52.630;4.896;2023-03-03T01:17:32;101037.75;;;2.22;82.77
46942;BME280;32676;52.630;4.896;2023-03-03T01:20:00;101019.56;;;2.13;82.81
46942;BME280;32676;52.630;4.896;2023-03-03T01:22:26;101039.47;;;2.23;82.96
46942;BME280;32676;52.630;4.896;2023-03-03T01:24:53;101023.91;;;2.17;82.98
46942;BME280;32676;52.630;4.896;2023-03-03T01:27:20;101039.47;;;2.23;83.17
46942;BME280;32676;52.630;4.896;2023-03-03T01:29:46;101036.88;;;2.19;83.32
46942;BME280;32676;52.630;4.896;2023-03-03T01:32:13;101049.88;;;2.26;83.57
46942;BME280;32676;52.630;4.896;2023-03-03T01:34:43;101054.22;;;2.27;83.57
46942;BME280;32676;52.630;4.896;2023-03-03T01:37:11;101048.13;;;2.25;83.68
46942;BME280;32676;52.630;4.896;2023-03-03T01:39:38;101032.59;;;2.22;83.80
46942;BME280;32676;52.630;4.896;2023-03-03T01:42:04;101044.66;;;2.23;83.68
46942;BME280;32676;52.630;4.896;2023-03-03T01:44:31;101030.84;;;2.21;83.91
46942;BME280;32676;52.630;4.896;2023-03-03T01:47:02;101019.56;;;2.18;83.81
46942;BME280;32676;52.630;4.896;2023-03-03T01:49:33;101016.13;;;2.19;84.04
46942;BME280;32676;52.630;4.896;2023-03-03T01:52:04;101025.63;;;2.18;83.97
46942;BME280;32676;52.630;4.896;2023-03-03T01:54:39;101023.88;;;2.14;84.06
46942;BME280;32676;52.630;4.896;2023-03-03T01:57:12;101021.31;;;2.19;84.24
46942;BME280;32676;52.630;4.896;2023-03-03T01:59:43;101006.59;;;2.16;84.27
46942;BME280;32676;52.630;4.896;2023-03-03T02:02:11;101010.06;;;2.15;84.24
46942;BME280;32676;52.630;4.896;2023-03-03T02:04:38;101010.06;;;2.15;84.32
46942;BME280;32676;52.630;4.896;2023-03-03T02:07:07;101015.25;;;2.15;84.27
46942;BME280;32676;52.630;4.896;2023-03-03T02:09:42;101031.72;;;2.20;84.34
46942;BME280;32676;52.630;4.896;2023-03-03T02:12:11;101003.94;;;2.05;84.26
46942;BME280;32676;52.630;4.896;2023-03-03T02:14:39;101018.69;;;2.14;84.14
46942;BME280;32676;52.630;4.896;2023-03-03T02:17:05;101000.53;;;2.11;84.21
46942;BME280;32676;52.630;4.896;2023-03-03T02:19:36;101004.88;;;2.12;84.25
46942;BME280;32676;52.630;4.896;2023-03-03T02:22:09;101011.78;;;2.16;84.24
46942;BME280;32676;52.630;4.896;2023-03-03T02:24:42;101004.88;;;2.12;84.13
46942;BME280;32676;52.630;4.896;2023-03-03T02:27:11;101007.47;;;2.12;84.21
46942;BME280;32676;52.630;4.896;2023-03-03T02:29:38;101001.41;;;2.10;84.34
46942;BME280;32676;52.630;4.896;2023-03-03T02:32:05;100994.50;;;2.12;84.36
46942;BME280;32676;52.630;4.896;2023-03-03T02:34:43;101013.47;;;2.11;84.27
46942;BME280;32676;52.630;4.896;2023-03-03T02:37:10;101014.38;;;2.10;84.36
46942;BME280;32676;52.630;4.896;2023-03-03T02:39:37;101016.97;;;2.16;84.24
46942;BME280;32676;52.630;4.896;2023-03-03T02:42:07;101016.97;;;2.16;84.19
46942;BME280;32676;52.630;4.896;2023-03-03T02:44:36;101016.97;;;2.16;84.28
46942;BME280;32676;52.630;4.896;2023-03-03T02:47:03;101006.59;;;2.13;84.25
46942;BME280;32676;52.630;4.896;2023-03-03T02:49:32;100996.22;;;2.10;84.03
46942;BME280;32676;52.630;4.896;2023-03-03T02:51:59;100987.56;;;2.08;84.12
46942;BME280;32676;52.630;4.896;2023-03-03T02:54:28;101003.13;;;2.11;84.20
46942;BME280;32676;52.630;4.896;2023-03-03T02:56:55;101007.47;;;2.12;84.13
46942;BME280;32676;52.630;4.896;2023-03-03T02:59:22;100997.94;;;2.08;84.26
46942;BME280;32676;52.630;4.896;2023-03-03T03:01:50;101003.13;;;2.11;84.07
46942;BME280;32676;52.630;4.896;2023-03-03T03:04:19;101000.53;;;2.11;84.01
46942;BME280;32676;52.630;4.896;2023-03-03T03:06:46;101001.41;;;2.10;83.92
46942;BME280;32676;52.630;4.896;2023-03-03T03:09:14;100994.47;;;2.09;84.02
46942;BME280;32676;52.630;4.896;2023-03-03T03:11:41;100978.03;;;2.05;84.09
46942;BME280;32676;52.630;4.896;2023-03-03T03:14:09;100975.44;;;2.01;84.04
46942;BME280;32676;52.630;4.896;2023-03-03T03:16:36;100984.09;;;2.06;84.02
46942;BME280;32676;52.630;4.896;2023-03-03T03:19:05;100987.53;;;2.05;84.07
46942;BME280;32676;52.630;4.896;2023-03-03T03:21:32;100983.22;;;2.01;84.14
46942;BME280;32676;52.630;4.896;2023-03-03T03:23:59;100984.97;;;2.06;83.99
46942;BME280;32676;52.630;4.896;2023-03-03T03:26:25;100981.50;;;2.04;84.12
46942;BME280;32676;52.630;4.896;2023-03-03T03:28:52;100966.78;;;2.02;84.03
46942;BME280;32676;52.630;4.896;2023-03-03T03:31:20;100947.78;;;1.97;83.94
46942;BME280;32676;52.630;4.896;2023-03-03T03:33:47;100927.88;;;1.92;83.90
46942;BME280;32676;52.630;4.896;2023-03-03T03:36:15;100911.44;;;1.84;83.86
46942;BME280;32676;52.630;4.896;2023-03-03T03:38:42;100901.94;;;1.85;83.80
46942;BME280;32676;52.630;4.896;2023-03-03T03:41:10;100886.38;;;1.82;83.74
46942;BME280;32676;52.630;4.896;2023-03-03T03:43:36;100879.44;;;1.78;83.82
46942;BME280;32676;52.630;4.896;2023-03-03T03:46:03;100880.31;;;1.78;83.68
46942;BME280;32676;52.630;4.896;2023-03-03T03:48:30;100875.13;;;1.78;83.65
46942;BME280;32676;52.630;4.896;2023-03-03T03:50:56;100866.47;;;1.76;83.57
46942;BME280;32676;52.630;4.896;2023-03-03T03:53:24;100871.66;;;1.76;83.78
46942;BME280;32676;52.630;4.896;2023-03-03T03:55:51;100872.53;;;1.78;83.83
46942;BME280;32676;52.630;4.896;2023-03-03T03:58:18;100876.84;;;1.76;83.93
46942;BME280;32676;52.630;4.896;2023-03-03T04:00:45;100875.13;;;1.78;83.99
46942;BME280;32676;52.630;4.896;2023-03-03T04:03:12;100876.84;;;1.76;83.94
46942;BME280;32676;52.630;4.896;2023-03-03T04:05:39;100877.72;;;1.78;84.32
46942;BME280;32676;52.630;4.896;2023-03-03T04:08:07;100875.13;;;1.78;84.19
46942;BME280;32676;52.630;4.896;2023-03-03T04:10:35;100880.31;;;1.78;84.37
46942;BME280;32676;52.630;4.896;2023-03-03T04:13:01;100882.06;;;1.79;84.36
46942;BME280;32676;52.630;4.896;2023-03-03T04:15:28;100869.06;;;1.76;84.33
46942;BME280;32676;52.630;4.896;2023-03-03T04:17:54;100862.16;;;1.73;84.16
46942;BME280;32676;52.630;4.896;2023-03-03T04:20:21;100850.06;;;1.71;84.22
46942;BME280;32676;52.630;4.896;2023-03-03T04:22:47;100837.09;;;1.68;84.17
46942;BME280;32676;52.630;4.896;2023-03-03T04:25:16;100833.66;;;1.66;84.00
46942;BME280;32676;52.630;4.896;2023-03-03T04:27:44;100813.75;;;1.63;84.14
46942;BME280;32676;52.630;4.896;2023-03-03T04:30:11;100791.28;;;1.56;83.97
46942;BME280;32676;52.630;4.896;2023-03-03T04:32:38;100769.72;;;1.49;84.06
46942;BME280;32676;52.630;4.896;2023-03-03T04:35:05;100755.88;;;1.44;83.82
46942;BME280;32676;52.630;4.896;2023-03-03T04:37:32;100746.38;;;1.46;83.58
46942;BME280;32676;52.630;4.896;2023-03-03T04:39:58;100734.31;;;1.44;83.55
46942;BME280;32676;52.630;4.896;2023-03-03T04:42:25;100746.34;;;1.42;83.44
46942;BME280;32676;52.630;4.896;2023-03-03T04:44:54;100750.69;;;1.47;83.40
46942;BME280;32676;52.630;4.896;2023-03-03T04:47:20;100766.22;;;1.44;83.51
46942;BME280;32676;52.630;4.896;2023-03-03T04:49:47;100793.00;;;1.49;83.86
46942;BME280;32676;52.630;4.896;2023-03-03T04:52:13;100796.47;;;1.56;83.95
46942;BME280;32676;52.630;4.896;2023-03-03T04:54:40;100822.41;;;1.62;84.19
46942;BME280;32676;52.630;4.896;2023-03-03T04:57:06;100850.94;;;1.70;84.34
46942;BME280;32676;52.630;4.896;2023-03-03T04:59:34;100852.63;;;1.71;84.41
46942;BME280;32676;52.630;4.896;2023-03-03T05:02:02;100860.41;;;1.72;84.58
46942;BME280;32676;52.630;4.896;2023-03-03T05:04:29;100870.78;;;1.74;84.81
46942;BME280;32676;52.630;4.896;2023-03-03T05:06:56;100875.97;;;1.74;85.00
46942;BME280;32676;52.630;4.896;2023-03-03T05:09:23;100865.59;;;1.71;85.00
46942;BME280;32676;52.630;4.896;2023-03-03T05:11:49;100871.69;;;1.73;85.13
46942;BME280;32676;52.630;4.896;2023-03-03T05:14:16;100873.38;;;1.74;85.18
46942;BME280;32676;52.630;4.896;2023-03-03T05:16:42;100860.41;;;1.71;85.21
46942;BME280;32676;52.630;4.896;2023-03-03T05:19:10;100849.19;;;1.69;85.20
46942;BME280;32676;52.630;4.896;2023-03-03T05:21:37;100824.97;;;1.58;85.22
46942;BME280;32676;52.630;4.896;2023-03-03T05:24:06;100834.47;;;1.63;84.83
46942;BME280;32676;52.630;4.896;2023-03-03T05:26:33;100797.34;;;1.57;84.70
46942;BME280;32676;52.630;4.896;2023-03-03T05:28:59;100798.19;;;1.54;84.74
46942;BME280;32676;52.630;4.896;2023-03-03T05:31:27;100805.13;;;1.57;84.45
46942;BME280;32676;52.630;4.896;2023-03-03T05:33:54;100797.34;;;1.53;84.57
46942;BME280;32676;52.630;4.896;2023-03-03T05:36:22;100788.69;;;1.51;84.29
46942;BME280;32676;52.630;4.896;2023-03-03T05:38:48;100776.56;;;1.47;84.23
46942;BME280;32676;52.630;4.896;2023-03-03T05:41:15;100761.06;;;1.44;84.07
46942;BME280;32676;52.630;4.896;2023-03-03T05:43:41;100742.06;;;1.42;83.98
46942;BME280;32676;52.630;4.896;2023-03-03T05:46:09;100736.84;;;1.33;84.00
46942;BME280;32676;52.630;4.896;2023-03-03T05:48:35;100770.53;;;1.47;84.03
46942;BME280;32676;52.630;4.896;2023-03-03T05:51:02;100773.16;;;1.48;83.93
46942;BME280;32676;52.630;4.896;2023-03-03T05:53:30;100805.13;;;1.55;84.24
46942;BME280;32676;52.630;4.896;2023-03-03T05:55:56;100818.94;;;1.59;84.38
46942;BME280;32676;52.630;4.896;2023-03-03T05:58:23;100819.78;;;1.58;84.70
46942;BME280;32676;52.630;4.896;2023-03-03T06:00:49;100833.63;;;1.63;84.70
46942;BME280;32676;52.630;4.896;2023-03-03T06:03:17;100824.94;;;1.54;85.08
46942;BME280;32676;52.630;4.896;2023-03-03T06:05:44;100833.63;;;1.63;85.07
46942;BME280;32676;52.630;4.896;2023-03-03T06:08:10;100828.44;;;1.57;85.14
46942;BME280;32676;52.630;4.896;2023-03-03T06:10:38;100831.88;;;1.62;85.26
46942;BME280;32676;52.630;4.896;2023-03-03T06:13:04;100812.03;;;1.58;85.08
46942;BME280;32676;52.630;4.896;2023-03-03T06:15:31;100804.22;;;1.54;85.22
46942;BME280;32676;52.630;4.896;2023-03-03T06:17:57;100799.06;;;1.54;85.08
46942;BME280;32676;52.630;4.896;2023-03-03T06:20:24;100796.47;;;1.51;84.79
46942;BME280;32676;52.630;4.896;2023-03-03T06:22:50;100774.00;;;1.49;84.74
46942;BME280;32676;52.630;4.896;2023-03-03T06:25:17;100761.91;;;1.45;84.70
46942;BME280;32676;52.630;4.896;2023-03-03T06:27:45;100739.44;;;1.38;84.42
46942;BME280;32676;52.630;4.896;2023-03-03T06:30:12;100738.59;;;1.37;84.25
46942;BME280;32676;52.630;4.896;2023-03-03T06:32:39;100726.50;;;1.33;84.01
46942;BME280;32676;52.630;4.896;2023-03-03T06:35:06;100716.13;;;1.30;84.13
46942;BME280;32676;52.630;4.896;2023-03-03T06:37:33;100717.84;;;1.28;83.86
46942;BME280;32676;52.630;4.896;2023-03-03T06:39:59;100736.84;;;1.36;83.59
46942;BME280;32676;52.630;4.896;2023-03-03T06:42:26;100735.97;;;1.34;83.76
46942;BME280;32676;52.630;4.896;2023-03-03T06:44:54;100759.31;;;1.43;83.86
46942;BME280;32676;52.630;4.896;2023-03-03T06:47:20;100769.66;;;1.43;83.97
46942;BME280;32676;52.630;4.896;2023-03-03T06:49:47;100779.16;;;1.47;84.37
46942;BME280;32676;52.630;4.896;2023-03-03T06:52:17;100811.16;;;1.56;84.11
46942;BME280;32676;52.630;4.896;2023-03-03T06:54:45;100847.41;;;1.62;84.31
46942;BME280;32676;52.630;4.896;2023-03-03T06:57:17;100880.28;;;1.72;84.24
46942;BME280;32676;52.630;4.896;2023-03-03T06:59:48;100895.84;;;1.72;84.16
46942;BME280;32676;52.630;4.896;2023-03-03T07:02:19;100925.25;;;1.83;84.03
46942;BME280;32676;52.630;4.896;2023-03-03T07:04:47;100955.50;;;1.90;83.64
46942;BME280;32676;52.630;4.896;2023-03-03T07:07:17;100989.25;;;1.97;83.61
46942;BME280;32676;52.630;4.896;2023-03-03T07:09:46;101007.41;;;2.03;83.36
46942;BME280;32676;52.630;4.896;2023-03-03T07:12:15;101039.41;;;2.11;83.11
46942;BME280;32676;52.630;4.896;2023-03-03T07:14:44;101068.84;;;2.19;82.80
46942;BME280;32676;52.630;4.896;2023-03-03T07:17:15;101099.97;;;2.25;82.56
46942;BME280;32676;52.630;4.896;2023-03-03T07:19:44;101132.03;;;2.34;82.48
46942;BME280;32676;52.630;4.896;2023-03-03T07:22:14;101160.59;;;2.40;82.31
46942;BME280;32676;52.630;4.896;2023-03-03T07:24:44;101189.16;;;2.44;82.05
46942;BME280;32676;52.630;4.896;2023-03-03T07:27:22;101245.44;;;2.59;82.03
46942;BME280;32676;52.630;4.896;2023-03-03T07:29:50;101262.78;;;2.63;81.80
46942;BME280;32676;52.630;4.896;2023-03-03T07:32:25;101306.09;;;2.74;81.91
46942;BME280;32676;52.630;4.896;2023-03-03T07:34:54;101359.81;;;2.87;82.03
46942;BME280;32676;52.630;4.896;2023-03-03T07:37:32;101409.25;;;2.99;82.24
46942;BME280;32676;52.630;4.896;2023-03-03T07:40:00;101451.75;;;3.11;81.98
46942;BME280;32676;52.630;4.896;2023-03-03T07:42:34;101505.53;;;3.24;82.16
46942;BME280;32676;52.630;4.896;2023-03-03T07:45:20;101546.31;;;3.34;82.03
46942;BME280;32676;52.630;4.896;2023-03-03T07:47:48;101584.50;;;3.43;81.86
46942;BME280;32676;52.630;4.896;2023-03-03T07:50:18;101614.84;;;3.49;81.59
46942;BME280;32676;52.630;4.896;2023-03-03T07:52:51;101662.63;;;3.61;81.56
46942;BME280;32676;52.630;4.896;2023-03-03T07:55:30;101706.91;;;3.72;81.38
46942;BME280;32676;52.630;4.896;2023-03-03T07:58:16;101747.75;;;3.82;81.22
46942;BME280;32676;52.630;4.896;2023-03-03T08:03:51;101823.34;;;4.01;80.83
46942;BME280;32676;52.630;4.896;2023-03-03T08:06:40;101855.50;;;4.08;80.54
46942;BME280;32676;52.630;4.896;2023-03-03T08:09:29;101881.59;;;4.15;80.32
46942;BME280;32676;52.630;4.896;2023-03-03T08:11:58;101909.41;;;4.21;80.27
46942;BME280;32676;52.630;4.896;2023-03-03T08:14:30;101950.25;;;4.30;80.06
46942;BME280;32676;52.630;4.896;2023-03-03T08:16:57;101971.13;;;4.36;79.90
46942;BME280;32676;52.630;4.896;2023-03-03T08:19:24;101992.00;;;4.42;79.92
46942;BME280;32676;52.630;4.896;2023-03-03T08:21:53;102015.47;;;4.45;79.80
46942;BME280;32676;52.630;4.896;2023-03-03T08:24:24;102051.19;;;4.55;79.65
46942;BME280;32676;52.630;4.896;2023-03-03T08:26:50;102077.25;;;4.58;79.58
46942;BME280;32676;52.630;4.896;2023-03-03T08:29:18;102105.09;;;4.66;79.34
46942;BME280;32676;52.630;4.896;2023-03-03T08:31:44;102149.53;;;4.78;79.13
46942;BME280;32676;52.630;4.896;2023-03-03T08:34:11;102171.28;;;4.83;78.89
46942;BME280;32676;52.630;4.896;2023-03-03T08:36:37;102184.28;;;4.81;78.84
46942;BME280;32676;52.630;4.896;2023-03-03T08:39:06;102235.69;;;4.96;78.55
46942;BME280;32676;52.630;4.896;2023-03-03T08:41:33;102259.28;;;5.04;78.45
46942;BME280;32676;52.630;4.896;2023-03-03T08:44:00;102280.13;;;5.06;78.41
46942;BME280;32676;52.630;4.896;2023-03-03T08:46:26;102303.72;;;5.15;78.25
46942;BME280;32676;52.630;4.896;2023-03-03T08:48:53;102322.88;;;5.20;78.27
46942;BME280;32676;52.630;4.896;2023-03-03T08:51:19;102369.03;;;5.29;78.01
46942;BME280;32676;52.630;4.896;2023-03-03T08:53:46;102392.59;;;5.36;78.02
46942;BME280;32676;52.630;4.896;2023-03-03T08:56:14;102418.78;;;5.43;77.79
46942;BME280;32676;52.630;4.896;2023-03-03T08:58:40;102445.78;;;5.46;77.69
46942;BME280;32676;52.630;4.896;2023-03-03T09:01:12;102486.78;;;5.58;77.37
46942;BME280;32676;52.630;4.896;2023-03-03T09:03:39;102524.28;;;5.65;77.46
46942;BME280;32676;52.630;4.896;2023-03-03T09:06:06;102558.34;;;5.75;77.47
46942;BME280;32676;52.630;4.896;2023-03-03T09:08:32;102595.00;;;5.85;77.26
46942;BME280;32676;52.630;4.896;2023-03-03T09:10:59;102626.41;;;5.91;77.13
46942;BME280;32676;52.630;4.896;2023-03-03T09:13:29;102656.16;;;5.99;76.72
46942;BME280;32676;52.630;4.896;2023-03-03T09:15:57;102666.53;;;5.96;76.66
46942;BME280;32676;52.630;4.896;2023-03-03T09:18:30;102704.16;;;6.09;76.17
46942;BME280;32676;52.630;4.896;2023-03-03T09:20:57;102720.78;;;6.15;75.85
46942;BME280;32676;52.630;4.896;2023-03-03T09:23:32;102745.25;;;6.21;75.58
46942;BME280;32676;52.630;4.896;2023-03-03T09:26:24;102788.81;;;6.25;75.13
46942;BME280;32676;52.630;4.896;2023-03-03T09:28:54;102813.38;;;6.36;74.88
46942;BME280;32676;52.630;4.896;2023-03-03T09:31:25;102851.84;;;6.46;74.93
46942;BME280;32676;52.630;4.896;2023-03-03T09:33:52;102874.56;;;6.50;74.51
46942;BME280;32676;52.630;4.896;2023-03-03T09:36:24;102892.94;;;6.57;74.13
46942;BME280;32676;52.630;4.896;2023-03-03T09:38:51;102923.53;;;6.64;73.54
46942;BME280;32676;52.630;4.896;2023-03-03T09:41:40;102970.72;;;6.73;73.20
46942;BME280;32676;52.630;4.896;2023-03-03T09:44:29;103006.56;;;6.80;73.03
46942;BME280;32676;52.630;4.896;2023-03-03T09:47:12;103061.66;;;6.91;72.02
46942;BME280;32676;52.630;4.896;2023-03-03T09:49:49;103136.16;;;7.13;71.86
46942;BME280;32676;52.630;4.896;2023-03-03T09:52:29;103161.44;;;7.14;71.06
46942;BME280;32676;52.630;4.896;2023-03-03T09:55:07;103211.44;;;7.29;70.13
46942;BME280;32676;52.630;4.896;2023-03-03T09:57:50;103256.06;;;7.37;69.35
46942;BME280;32676;52.630;4.896;2023-03-03T10:00:30;103287.66;;;7.48;67.98
46942;BME280;32676;52.630;4.896;2023-03-03T10:03:18;103292.94;;;7.51;66.26
46942;BME280;32676;52.630;4.896;2023-03-03T10:05:54;103291.19;;;7.50;65.18
46942;BME280;32676;52.630;4.896;2023-03-03T10:08:35;103275.34;;;7.44;64.78
46942;BME280;32676;52.630;4.896;2023-03-03T10:11:12;103249.16;;;7.41;64.62
46942;BME280;32676;52.630;4.896;2023-03-03T10:13:55;103218.34;;;7.27;64.56
46942;BME280;32676;52.630;4.896;2023-03-03T10:16:39;103216.72;;;7.33;64.71
46942;BME280;32676;52.630;4.896;2023-03-03T10:19:19;103212.34;;;7.32;64.77
46942;BME280;32676;52.630;4.896;2023-03-03T10:21:57;103216.69;;;7.31;65.08
46942;BME280;32676;52.630;4.896;2023-03-03T10:24:28;103227.25;;;7.36;65.10
46942;BME280;32676;52.630;4.896;2023-03-03T10:27:10;103222.84;;;7.35;64.97
46942;BME280;32676;52.630;4.896;2023-03-03T10:29:54;103215.88;;;7.34;65.14
46942;BME280;32676;52.630;4.896;2023-03-03T10:32:43;103201.81;;;7.28;65.56
46942;BME280;32676;52.630;4.896;2023-03-03T10:35:51;103191.34;;;7.28;65.74
46942;BME280;32676;52.630;4.896;2023-03-03T10:38:31;103188.69;;;7.27;66.22
46942;BME280;32676;52.630;4.896;2023-03-03T10:41:12;103185.19;;;7.25;66.42
46942;BME280;32676;52.630;4.896;2023-03-03T10:43:54;103166.84;;;7.23;66.43
46942;BME280;32676;52.630;4.896;2023-03-03T10:46:54;103145.81;;;7.17;66.83
46942;BME280;32676;52.630;4.896;2023-03-03T10:49:34;103137.00;;;7.12;66.98
46942;BME280;32676;52.630;4.896;2023-03-03T10:52:18;103151.84;;;7.15;67.15
46942;BME280;32676;52.630;4.896;2023-03-03T10:54:58;103173.84;;;7.24;67.19
46942;BME280;32676;52.630;4.896;2023-03-03T10:57:33;103190.41;;;7.25;67.04
46942;BME280;32676;52.630;4.896;2023-03-03T11:00:15;103226.38;;;7.35;66.83
46942;BME280;32676;52.630;4.896;2023-03-03T11:02:53;103236.91;;;7.40;66.57
46942;BME280;32676;52.630;4.896;2023-03-03T11:05:32;103264.88;;;7.44;66.40
46942;BME280;32676;52.630;4.896;2023-03-03T11:08:07;103307.00;;;7.56;66.65
46942;BME280;32676;52.630;4.896;2023-03-03T11:10:41;103337.66;;;7.63;66.70
46942;BME280;32676;52.630;4.896;2023-03-03T11:13:15;103353.44;;;7.66;66.82
46942;BME280;32676;52.630;4.896;2023-03-03T11:15:52;103355.19;;;7.67;66.25
46942;BME280;32676;52.630;4.896;2023-03-03T11:18:36;103359.50;;;7.65;65.96
46942;BME280;32676;52.630;4.896;2023-03-03T11:21:12;103350.75;;;7.63;65.29
46942;BME280;32676;52.630;4.896;2023-03-03T11:23:53;103346.44;;;7.65;64.74
46942;BME280;32676;52.630;4.896;2023-03-03T11:26:32;103347.28;;;7.64;63.83
46942;BME280;32676;52.630;4.896;2023-03-03T11:29:15;103335.84;;;7.59;63.71
46942;BME280;32676;52.630;4.896;2023-03-03T11:31:48;103335.06;;;7.63;63.53
46942;BME280;32676;52.630;4.896;2023-03-03T11:34:42;103298.19;;;7.53;63.39
46942;BME280;32676;52.630;4.896;2023-03-03T11:37:16;103308.78;;;7.57;62.97
46942;BME280;32676;52.630;4.896;2023-03-03T11:39:44;103319.28;;;7.60;62.94
46942;BME280;32676;52.630;4.896;2023-03-03T11:42:18;103323.63;;;7.60;62.59
46942;BME280;32676;52.630;4.896;2023-03-03T11:44:50;103326.28;;;7.61;62.52
46942;BME280;32676;52.630;4.896;2023-03-03T11:47:23;103340.28;;;7.63;62.51
46942;BME280;32676;52.630;4.896;2023-03-03T11:49:55;103349.94;;;7.67;62.46
46942;BME280;32676;52.630;4.896;2023-03-03T11:52:32;103373.66;;;7.74;62.24
46942;BME280;32676;52.630;4.896;2023-03-03T11:55:05;103389.34;;;7.74;61.95
46942;BME280;32676;52.630;4.896;2023-03-03T11:57:38;103385.06;;;7.77;61.53
46942;BME280;32676;52.630;4.896;2023-03-03T12:00:31;103417.47;;;7.84;61.44
46942;BME280;32676;52.630;4.896;2023-03-03T12:03:26;103434.19;;;7.91;61.48
46942;BME280;32676;52.630;4.896;2023-03-03T12:06:02;103433.25;;;7.87;61.45
46942;BME280;32676;52.630;4.896;2023-03-03T12:08:43;103417.53;;;7.87;61.34
46942;BME280;32676;52.630;4.896;2023-03-03T12:11:24;103391.19;;;7.78;61.17
46942;BME280;32676;52.630;4.896;2023-03-03T12:13:57;103389.47;;;7.80;61.10
46942;BME280;32676;52.630;4.896;2023-03-03T12:16:37;103352.56;;;7.67;61.01
46942;BME280;32676;52.630;4.896;2023-03-03T12:19:16;103366.63;;;7.73;61.13
46942;BME280;32676;52.630;4.896;2023-03-03T12:21:55;103395.56;;;7.80;61.19
46942;BME280;32676;52.630;4.896;2023-03-03T12:24:33;103427.13;;;7.86;61.32
46942;BME280;32676;52.630;4.896;2023-03-03T12:27:15;103440.31;;;7.91;61.28
46942;BME280;32676;52.630;4.896;2023-03-03T12:29:52;103485.03;;;8.02;61.67
46942;BME280;32676;52.630;4.896;2023-03-03T12:32:31;103515.78;;;8.11;61.62
46942;BME280;32676;52.630;4.896;2023-03-03T12:35:05;103550.91;;;8.19;61.90
46942;BME280;32676;52.630;4.896;2023-03-03T12:37:50;103531.56;;;8.14;61.55
46942;BME280;32676;52.630;4.896;2023-03-03T12:40:24;103539.50;;;8.17;61.64
46942;BME280;32676;52.630;4.896;2023-03-03T12:43:02;103537.75;;;8.17;61.58
46942;BME280;32676;52.630;4.896;2023-03-03T12:45:38;103555.22;;;8.18;61.35
46942;BME280;32676;52.630;4.896;2023-03-03T12:48:15;103567.56;;;8.24;61.13
46942;BME280;32676;52.630;4.896;2023-03-03T12:50:50;103550.91;;;8.19;60.61
46942;BME280;32676;52.630;4.896;2023-03-03T12:53:53;103543.84;;;8.16;60.82
46942;BME280;32676;52.630;4.896;2023-03-03T12:56:29;103543.84;;;8.16;60.82
46942;BME280;32676;52.630;4.896;2023-03-03T12:59:03;103535.94;;;8.13;61.00
46942;BME280;32676;52.630;4.896;2023-03-03T13:01:45;103571.97;;;8.25;61.17
46942;BME280;32676;52.630;4.896;2023-03-03T13:04:27;103575.50;;;8.27;61.37
46942;BME280;32676;52.630;4.896;2023-03-03T13:06:58;103580.75;;;8.27;61.65
46942;BME280;32676;52.630;4.896;2023-03-03T13:09:34;103589.53;;;8.29;61.67
46942;BME280;32676;52.630;4.896;2023-03-03T13:12:19;103612.38;;;8.36;61.78
46942;BME280;32676;52.630;4.896;2023-03-03T13:14:52;103588.56;;;8.25;61.48
46942;BME280;32676;52.630;4.896;2023-03-03T13:17:26;103568.47;;;8.24;61.02
46942;BME280;32676;52.630;4.896;2023-03-03T13:19:57;103543.88;;;8.18;60.76
46942;BME280;32676;52.630;4.896;2023-03-03T13:22:36;103554.34;;;8.18;60.66
46942;BME280;32676;52.630;4.896;2023-03-03T13:25:13;103583.44;;;8.30;61.01